Gilman, Iowa
Current Conditions -  °F | °C
As of 8:55 PM on Thursday 27 Nov 2014 (Local Time) from KGGI Reporting Station
Overcast Overcast  
Wind Chill: -3°   Ceiling: 11000
Heat Index:   Visibility: 10mi
Dew Point:   Wind: 7mph
Humidity: 79%   Direction: 130°SE
Pressure: 30.37"   Gusts: NA
Location:  41.88°N, 92.79°W
Report Text: KGGI 280255Z AUTO 13006KT 10SM SCT030 SCT048 OVC110 M13/M16 A3037 RMK AO2 T11301159
Loading
Personal Weather Stations






























Interactive Weather Map New forecast layout! Learn more

10-Day Weather Forecast

Advertisements
Track Severe Weather on mobile